Time;durP1;ratioP1;P1;durP2;ratioP2;P2;SDS_P1;SDS_P2;PMS_P1;PMS_P2;Temp;Humidity;BMP_temperature;BMP_pressure;BME280_temperature;BME280_humidity;BME280_pressure;Samples;Min_cycle;Max_cycle;Signal;HPM_P1;HPM_P2
2023/01/17 00:01:18;;;;;;;17.05;11.18;;;;;;;2.91;100.00;62291.53;4988391;28;20262;-79
2023/01/17 00:12:02;;;;;;;11.15;7.30;;;;;;;3.04;100.00;62311.91;4998988;28;20255;-79
2023/01/17 00:14:29;;;;;;;13.27;7.78;;;;;;;3.00;100.00;62308.31;5004961;28;20203;-79
2023/01/17 00:16:56;;;;;;;10.80;7.72;;;;;;;2.92;100.00;62302.09;5007497;28;20231;-80
2023/01/17 01:34:34;;;;;;;12.70;7.95;;;;;;;2.76;100.00;62286.16;5002065;28;20255;-79
2023/01/17 01:37:01;;;;;;;11.40;7.88;;;;;;;2.90;100.00;62295.03;5002307;28;20238;-79
2023/01/17 01:39:28;;;;;;;12.27;8.13;;;;;;;2.83;100.00;62288.34;4991279;28;20207;-79
2023/01/17 01:41:55;;;;;;;12.73;7.57;;;;;;;2.82;100.00;62289.81;5006982;28;20456;-80
2023/01/17 01:44:45;;;;;;;12.10;8.30;;;;;;;2.98;100.00;62306.28;5006446;28;20218;-79
2023/01/17 01:47:20;;;;;;;12.65;7.20;;;;;;;3.00;100.00;62307.81;4999668;28;20525;-79
2023/01/17 01:49:49;;;;;;;10.55;7.70;;;;;;;2.95;100.00;62305.19;4997821;28;20520;-79
2023/01/17 01:52:17;;;;;;;13.60;8.40;;;;;;;2.94;100.00;62304.69;5006582;28;20234;-79
2023/01/17 01:54:49;;;;;;;13.32;8.43;;;;;;;3.07;100.00;62318.03;5009299;28;20208;-80
2023/01/17 01:57:21;;;;;;;13.20;8.70;;;;;;;3.20;100.00;62323.84;5010479;28;20286;-79
2023/01/17 01:59:56;;;;;;;14.38;9.13;;;;;;;3.07;100.00;62313.00;5009384;28;20212;-80
2023/01/17 02:02:25;;;;;;;11.93;7.80;;;;;;;3.30;100.00;62336.13;5007015;28;20245;-79
2023/01/17 02:04:53;;;;;;;10.63;7.15;;;;;;;3.34;100.00;62343.28;5006266;28;20571;-80
2023/01/17 02:07:26;;;;;;;12.75;8.35;;;;;;;3.37;100.00;62345.84;5010858;28;20276;-80
2023/01/17 02:09:53;;;;;;;13.10;7.80;;;;;;;3.40;100.00;62348.91;5010212;28;20431;-80
2023/01/17 02:12:21;;;;;;;12.05;7.45;;;;;;;3.38;100.00;62347.38;5010450;28;20238;-80
2023/01/17 02:14:48;;;;;;;10.43;7.18;;;;;;;3.50;100.00;62359.72;5006640;28;20215;-79
2023/01/17 02:17:32;;;;;;;11.50;7.63;;;;;;;3.45;100.00;62352.06;4992364;28;20245;-79
2023/01/17 02:20:39;;;;;;;9.52;7.63;;;;;;;3.34;100.00;62348.31;5004291;28;20230;-79
2023/01/17 02:23:39;;;;;;;12.70;8.18;;;;;;;3.27;100.00;62335.56;5004658;28;20228;-80
2023/01/17 02:26:58;;;;;;;13.45;7.97;;;;;;;3.35;100.00;62344.31;4991215;28;20242;-79
2023/01/17 02:30:04;;;;;;;13.30;7.97;;;;;;;3.31;100.00;62342.69;4996039;28;20227;-80
2023/01/17 02:32:45;;;;;;;10.80;7.53;;;;;;;3.21;100.00;62326.88;4992741;28;20235;-79
2023/01/17 02:35:20;;;;;;;12.77;8.07;;;;;;;3.35;100.00;62341.78;4991038;28;20283;-80
2023/01/17 02:37:56;;;;;;;12.38;7.82;;;;;;;3.37;100.00;62348.88;4991114;28;20223;-79
2023/01/17 02:40:28;;;;;;;13.02;7.95;;;;;;;3.47;100.00;62353.59;5000783;28;20202;-79
2023/01/17 02:43:01;;;;;;;13.85;8.15;;;;;;;3.53;100.00;62364.81;5011102;28;20284;-79
2023/01/17 02:45:29;;;;;;;9.75;7.53;;;;;;;3.63;100.00;62370.06;5009839;28;20230;-80
2023/01/17 02:47:58;;;;;;;11.68;8.63;;;;;;;3.60;100.00;62369.50;5011163;28;20223;-80
2023/01/17 02:50:31;;;;;;;12.10;8.23;;;;;;;3.68;100.00;62377.19;5002459;28;20207;-80
2023/01/17 02:53:20;;;;;;;9.98;7.47;;;;;;;3.75;100.00;62384.91;5010853;28;20199;-79
2023/01/17 02:55:56;;;;;;;12.88;7.53;;;;;;;3.73;100.00;62382.84;5010491;28;20520;-80
2023/01/17 02:58:39;;;;;;;11.05;7.78;;;;;;;3.74;100.00;62380.84;5007976;28;20238;-80
2023/01/17 03:01:17;;;;;;;13.35;8.15;;;;;;;3.46;100.00;62355.63;4990567;28;20235;-79
2023/01/17 03:03:50;;;;;;;13.15;8.88;;;;;;;3.78;100.00;62384.97;4999747;28;20571;-81
2023/01/17 03:06:21;;;;;;;14.65;9.23;;;;;;;3.64;100.00;62373.63;5000942;28;20228;-79
2023/01/17 03:08:52;;;;;;;15.50;10.20;;;;;;;3.64;100.00;62373.09;4995273;28;20214;-79
2023/01/17 03:11:19;;;;;;;16.75;10.80;;;;;;;3.34;100.00;62340.25;4988663;28;20226;-79
2023/01/17 03:13:46;;;;;;;19.48;10.80;;;;;;;3.25;100.00;62333.50;4989624;28;20200;-80
2023/01/17 03:16:19;;;;;;;17.90;11.15;;;;;;;3.23;100.00;62328.94;5005698;28;20323;-79
2023/01/17 03:18:48;;;;;;;16.25;11.25;;;;;;;3.12;100.00;62318.13;5006729;28;20215;-79
2023/01/17 03:21:15;;;;;;;14.65;10.18;;;;;;;3.22;100.00;62328.44;5008936;28;20258;-79
2023/01/17 03:23:43;;;;;;;15.68;9.55;;;;;;;3.22;100.00;62327.91;5008264;28;20291;-78
2023/01/17 03:26:10;;;;;;;18.95;11.05;;;;;;;3.24;100.00;62327.97;5001962;28;20240;-78
2023/01/17 03:28:36;;;;;;;15.85;10.98;;;;;;;3.21;100.00;62331.91;4992848;28;20362;-79
2023/01/17 03:31:03;;;;;;;17.52;11.55;;;;;;;3.14;100.00;62320.19;4989163;28;20224;-79
2023/01/17 03:33:30;;;;;;;18.67;10.40;;;;;;;3.10;100.00;62316.09;4989225;28;20207;-79
2023/01/17 03:35:59;;;;;;;27.55;15.13;;;;;;;3.06;100.00;62314.50;5002176;28;20480;-80
2023/01/17 03:38:26;;;;;;;18.77;11.18;;;;;;;2.99;100.00;62304.25;5008502;28;20499;-79
2023/01/17 03:40:54;;;;;;;18.80;11.05;;;;;;;2.87;100.00;62294.44;5008174;28;20396;-79
2023/01/17 03:43:21;;;;;;;17.52;11.40;;;;;;;2.64;100.00;62270.81;5007406;28;20249;-80
2023/01/17 03:45:50;;;;;;;19.73;12.18;;;;;;;2.62;100.00;62268.75;5005454;28;20230;-79
2023/01/17 03:48:18;;;;;;;19.63;13.25;;;;;;;2.55;100.00;62261.56;5005048;28;20243;-80
2023/01/17 03:50:45;;;;;;;21.00;11.90;;;;;;;2.48;100.00;62251.88;4990760;28;20231;-79
2023/01/17 03:53:14;;;;;;;21.35;12.10;;;;;;;2.68;100.00;62270.41;5007805;28;20214;-80
2023/01/17 03:55:41;;;;;;;20.38;12.93;;;;;;;2.72;100.00;62279.56;5008412;28;20532;-80
2023/01/17 03:58:08;;;;;;;23.17;12.25;;;;;;;2.72;100.00;62276.53;5006563;28;20274;-80
2023/01/17 04:00:35;;;;;;;19.98;12.40;;;;;;;2.70;100.00;62276.97;5003669;28;20215;-79
2023/01/17 04:03:02;;;;;;;20.33;11.60;;;;;;;2.66;100.00;62273.38;5007370;28;20239;-79
2023/01/17 04:05:29;;;;;;;19.27;11.85;;;;;;;2.73;100.00;62283.09;5009034;28;20222;-79
2023/01/17 04:07:56;;;;;;;23.88;11.63;;;;;;;2.70;100.00;62280.00;5007297;28;20215;-80
2023/01/17 04:10:25;;;;;;;22.15;12.15;;;;;;;2.67;100.00;62279.44;5008200;28;20203;-79
2023/01/17 04:12:52;;;;;;;23.73;13.18;;;;;;;2.78;100.00;62285.72;5006898;28;20278;-80
2023/01/17 04:15:19;;;;;;;19.10;12.52;;;;;;;2.71;100.00;62281.03;5002480;28;20234;-79
2023/01/17 04:17:46;;;;;;;20.35;11.52;;;;;;;2.88;100.00;62292.97;5006648;28;20223;-78
2023/01/17 04:20:19;;;;;;;20.15;11.63;;;;;;;2.88;100.00;62300.50;5006499;28;20203;-80
2023/01/17 04:22:46;;;;;;;18.88;11.55;;;;;;;2.55;100.00;62264.09;5003771;28;20266;-79
2023/01/17 04:25:13;;;;;;;21.08;12.35;;;;;;;2.68;100.00;62275.44;5007717;28;20207;-79
2023/01/17 04:27:43;;;;;;;22.15;13.20;;;;;;;2.68;100.00;62275.44;5004476;28;20250;-79
2023/01/17 04:30:11;;;;;;;22.10;13.55;;;;;;;2.72;100.00;62282.06;5004994;28;20227;-80
2023/01/17 04:32:41;;;;;;;22.00;13.15;;;;;;;2.77;100.00;62281.66;5005188;28;20246;-79
2023/01/17 04:35:09;;;;;;;26.67;14.77;;;;;;;2.84;100.00;62293.88;5000289;28;20208;-79
2023/01/17 04:37:36;;;;;;;25.27;14.07;;;;;;;2.86;100.00;62293.94;4991428;28;20235;-79
2023/01/17 04:40:04;;;;;;;21.42;12.88;;;;;;;2.88;100.00;62295.97;4991880;28;20208;-81
2023/01/17 04:42:31;;;;;;;20.17;13.02;;;;;;;2.98;100.00;62306.28;5006097;28;20547;-80
2023/01/17 04:45:00;;;;;;;21.08;13.32;;;;;;;2.92;100.00;62299.59;5003861;28;20210;-80
2023/01/17 04:47:27;;;;;;;19.98;13.10;;;;;;;2.84;100.00;62289.38;5003932;28;20231;-79
2023/01/17 04:49:54;;;;;;;20.73;12.35;;;;;;;2.79;100.00;62284.25;4998907;28;20817;-80
2023/01/17 04:52:21;;;;;;;18.40;11.18;;;;;;;3.02;100.00;62312.38;5006288;28;20234;-80
2023/01/17 04:54:48;;;;;;;23.88;14.52;;;;;;;3.02;100.00;62307.34;5007016;28;20215;-80
2023/01/17 04:57:16;;;;;;;22.27;13.57;;;;;;;2.89;100.00;62294.00;5005125;28;20258;-80
2023/01/17 04:59:43;;;;;;;23.83;13.88;;;;;;;2.89;100.00;62294.50;5007351;28;20262;-79
2023/01/17 05:02:13;;;;;;;22.25;13.68;;;;;;;2.95;100.00;62300.16;4993831;28;20239;-79
2023/01/17 05:04:40;;;;;;;23.85;13.50;;;;;;;2.73;100.00;62277.53;4996803;28;20207;-80
2023/01/17 05:07:06;;;;;;;26.33;14.27;;;;;;;2.79;100.00;62289.25;4995733;28;20317;-80
2023/01/17 05:09:34;;;;;;;25.75;13.20;;;;;;;2.88;100.00;62293.47;5002470;28;20250;-78
2023/01/17 05:12:01;;;;;;;22.83;12.63;;;;;;;2.82;100.00;62284.81;5002931;28;20270;-78
2023/01/17 05:14:28;;;;;;;23.05;14.38;;;;;;;2.92;100.00;62297.06;4997692;28;20203;-78
2023/01/17 05:16:55;;;;;;;26.52;13.60;;;;;;;2.88;100.00;62292.97;4990101;28;20227;-78
2023/01/17 05:19:25;;;;;;;19.88;11.48;;;;;;;2.90;100.00;62295.53;4996649;28;20247;-78
2023/01/17 05:21:52;;;;;;;18.75;11.32;;;;;;;2.89;100.00;62294.50;4990696;28;20235;-79
2023/01/17 05:24:19;;;;;;;20.88;11.90;;;;;;;2.96;100.00;62301.19;4997051;28;20204;-79
2023/01/17 05:26:55;;;;;;;18.23;10.63;;;;;;;2.95;100.00;62303.19;4996529;28;20219;-79
2023/01/17 05:29:22;;;;;;;22.67;12.50;;;;;;;3.05;100.00;62310.97;5006928;28;20203;-79
2023/01/17 05:31:49;;;;;;;2.78;2.45;;;;;;;3.65;100.00;62377.16;4995278;28;20232;-81
2023/01/17 05:34:16;;;;;;;1.33;1.33;;;;;;;4.44;100.00;62453.38;5000340;28;20417;-78
2023/01/17 05:36:45;;;;;;;0.68;0.68;;;;;;;5.38;100.00;62552.19;4994372;28;20226;-78
2023/01/17 05:39:12;;;;;;;0.50;0.50;;;;;;;6.21;100.00;62634.69;4993597;28;20212;-79
2023/01/17 05:41:39;;;;;;;0.60;0.60;;;;;;;6.98;100.00;62719.16;5010665;28;20238;-78
2023/01/17 05:44:06;;;;;;;0.50;0.50;;;;;;;7.42;100.00;62761.50;5007330;28;20224;-78
2023/01/17 05:46:33;;;;;;;0.55;0.55;;;;;;;7.71;100.00;62790.91;4990036;28;20236;-79
2023/01/17 05:49:00;;;;;;;0.50;0.50;;;;;;;7.86;100.00;62806.41;4988614;28;20307;-79
2023/01/17 05:51:28;;;;;;;0.50;0.50;;;;;;;8.23;100.00;62842.09;4998651;28;20552;-77
2023/01/17 05:53:56;;;;;;;0.45;0.45;;;;;;;8.20;100.00;62844.03;5007522;28;20219;-78
2023/01/17 05:56:24;;;;;;;0.63;0.63;;;;;;;8.48;100.00;62873.00;5007751;28;20233;-78
2023/01/17 05:58:51;;;;;;;1.05;0.70;;;;;;;8.51;100.00;62873.03;5006613;28;20203;-78
2023/01/17 06:01:18;;;;;;;0.40;0.40;;;;;;;8.69;100.00;62892.16;5006951;28;20228;-79
2023/01/17 06:03:45;;;;;;;0.70;0.70;;;;;;;8.85;100.00;62910.72;5008808;28;20239;-77
2023/01/17 06:06:12;;;;;;;0.47;0.47;;;;;;;8.97;99.85;62923.63;5006671;28;20532;-77
2023/01/17 06:08:39;;;;;;;0.60;0.57;;;;;;;9.02;99.56;62925.75;5008313;28;20207;-80
2023/01/17 06:11:07;;;;;;;0.50;0.50;;;;;;;9.10;98.30;62934.53;5008512;28;20237;-76
2023/01/17 06:13:34;;;;;;;0.60;0.52;;;;;;;9.22;96.57;62946.41;5008234;28;20199;-77
2023/01/17 06:16:02;;;;;;;2.38;0.93;;;;;;;9.27;97.52;62949.03;4995093;28;20279;-77
2023/01/17 06:18:30;;;;;;;0.70;0.70;;;;;;;9.32;96.45;62961.81;4996902;28;20211;-77
2023/01/17 06:20:58;;;;;;;0.50;0.50;;;;;;;9.41;95.52;62966.03;5008158;28;20231;-76
2023/01/17 06:23:25;;;;;;;0.70;0.68;;;;;;;9.26;92.93;62945.97;5008258;28;20326;-76
2023/01/17 06:25:52;;;;;;;0.50;0.50;;;;;;;9.55;93.50;62982.53;5008234;28;20203;-77
2023/01/17 06:28:22;;;;;;;0.63;0.63;;;;;;;9.67;93.04;62992.41;5007108;28;20199;-78
2023/01/17 06:30:49;;;;;;;0.55;0.55;;;;;;;9.69;92.01;62992.47;5009073;28;20194;-79
2023/01/17 06:33:16;;;;;;;0.50;0.50;;;;;;;9.80;91.48;63006.38;5007615;28;20203;-77
2023/01/17 06:35:48;;;;;;;0.80;0.80;;;;;;;9.82;90.11;63005.41;5007707;28;20226;-77
2023/01/17 06:38:16;;;;;;;0.55;0.55;;;;;;;9.91;90.77;63015.22;5008364;28;20191;-77
2023/01/17 06:40:42;;;;;;;0.80;0.80;;;;;;;9.95;89.84;63016.81;5007244;28;20206;-78
2023/01/17 06:43:09;;;;;;;0.77;0.77;;;;;;;9.95;90.05;63021.38;5007409;28;20305;-77
2023/01/17 06:45:37;;;;;;;1.02;0.93;;;;;;;9.99;88.93;63023.47;5007384;28;20262;-77
2023/01/17 06:48:06;;;;;;;1.13;0.90;;;;;;;10.06;88.01;63035.31;5008022;28;20212;-79
2023/01/17 06:50:34;;;;;;;0.70;0.70;;;;;;;10.18;86.61;63048.25;5007629;28;20207;-79
2023/01/17 06:53:03;;;;;;;0.60;0.60;;;;;;;10.26;86.20;63050.91;5008947;28;20262;-79
2023/01/17 06:55:32;;;;;;;0.68;0.65;;;;;;;10.25;85.43;63052.94;5009569;28;20215;-78
2023/01/17 06:58:01;;;;;;;0.75;0.75;;;;;;;10.30;85.47;63055.06;5007682;28;20563;-77
2023/01/17 07:00:28;;;;;;;0.82;0.82;;;;;;;10.30;85.06;63055.56;4998876;28;20471;-78
2023/01/17 07:02:56;;;;;;;1.88;1.67;;;;;;;10.13;86.50;63040.53;5007610;28;20602;-77
2023/01/17 07:05:23;;;;;;;0.80;0.80;;;;;;;10.20;86.04;63047.25;5008401;28;20238;-79
2023/01/17 07:07:50;;;;;;;1.10;1.00;;;;;;;10.27;85.59;63057.03;5008053;28;20261;-78
2023/01/17 07:10:17;;;;;;;1.40;1.30;;;;;;;10.30;84.67;63060.66;5007312;28;20238;-77
2023/01/17 07:12:44;;;;;;;1.20;0.90;;;;;;;10.39;84.68;63069.44;5007330;28;20246;-78
2023/01/17 07:15:12;;;;;;;0.93;0.70;;;;;;;10.51;82.46;63076.78;5009852;28;20385;-79
2023/01/17 07:17:39;;;;;;;1.15;0.77;;;;;;;10.66;81.93;63092.31;5007719;28;20346;-78
2023/01/17 07:20:09;;;;;;;0.85;0.73;;;;;;;10.67;81.31;63098.44;4989582;28;20251;-78
2023/01/17 07:22:36;;;;;;;0.68;0.68;;;;;;;10.77;80.54;63108.28;4988200;28;20243;-77
2023/01/17 07:25:04;;;;;;;0.75;0.75;;;;;;;10.83;79.41;63109.91;4988469;28;20200;-80
2023/01/17 07:27:32;;;;;;;1.25;0.93;;;;;;;10.94;78.64;63123.84;4995187;28;20250;-78
2023/01/17 07:29:59;;;;;;;1.35;1.10;;;;;;;10.79;81.93;63110.34;5001046;28;20331;-78
2023/01/17 07:32:26;;;;;;;3.53;1.40;;;;;;;10.70;85.37;63101.53;4989252;28;20270;-78
2023/01/17 07:34:56;;;;;;;1.38;1.13;;;;;;;10.61;86.32;63086.63;4988200;28;20210;-78
2023/01/17 07:37:25;;;;;;;0.82;0.82;;;;;;;10.46;85.53;63079.78;4999189;28;20243;-77
2023/01/17 07:39:52;;;;;;;2.88;1.20;;;;;;;10.51;86.98;63079.31;5001719;28;20232;-78
2023/01/17 07:42:22;;;;;;;2.67;1.20;;;;;;;10.54;87.64;63084.47;5005443;28;20261;-79
2023/01/17 07:44:49;;;;;;;1.98;1.30;;;;;;;10.57;85.90;63090.13;5008983;28;20207;-80
2023/01/17 07:47:16;;;;;;;2.47;1.00;;;;;;;10.73;83.93;63104.13;5010138;28;20224;-79
2023/01/17 07:49:43;;;;;;;1.10;1.00;;;;;;;10.84;82.00;63110.41;5008681;28;20251;-81
2023/01/17 07:52:10;;;;;;;1.10;1.10;;;;;;;10.94;80.40;63126.38;5007763;28;20224;-79
2023/01/17 07:54:38;;;;;;;1.00;1.00;;;;;;;11.05;79.74;63137.25;5009141;28;20223;-79
2023/01/17 07:57:05;;;;;;;0.90;0.90;;;;;;;11.19;78.74;63149.75;5009158;28;20540;-79
2023/01/17 07:59:33;;;;;;;0.80;0.80;;;;;;;11.28;79.16;63166.19;5008062;28;20378;-78
2023/01/17 08:02:00;;;;;;;0.70;0.70;;;;;;;11.27;76.64;63160.03;5007746;28;20226;-79
2023/01/17 08:04:33;;;;;;;1.30;1.10;;;;;;;11.29;77.31;63157.53;5007308;28;20239;-78
2023/01/17 08:07:01;;;;;;;0.90;0.90;;;;;;;11.46;75.51;63182.78;5008857;28;20234;-78
2023/01/17 08:09:27;;;;;;;0.95;0.95;;;;;;;11.55;73.98;63187.03;4999479;28;20203;-79
2023/01/17 08:11:56;;;;;;;1.77;1.67;;;;;;;11.59;71.60;63193.19;5009223;28;20234;-79
2023/01/17 08:14:23;;;;;;;1.10;1.10;;;;;;;11.63;72.54;63194.78;5007871;28;20278;-78
2023/01/17 08:16:53;;;;;;;3.60;1.00;;;;;;;11.72;72.78;63211.28;5008873;28;20563;-79
2023/01/17 08:19:21;;;;;;;1.02;1.02;;;;;;;11.51;73.25;63179.78;5007546;28;20279;-79
2023/01/17 08:21:52;;;;;;;1.60;1.50;;;;;;;11.60;73.61;63196.78;5008078;28;20223;-78
2023/01/17 08:24:20;;;;;;;1.23;1.13;;;;;;;11.53;72.72;63187.50;5009217;28;20242;-79
2023/01/17 08:26:47;;;;;;;1.40;1.17;;;;;;;11.52;72.75;63185.94;5008482;28;20295;-79
2023/01/17 08:29:21;;;;;;;0.80;0.80;;;;;;;11.58;71.57;63192.16;5007649;28;20233;-81
2023/01/17 08:31:54;;;;;;;1.65;1.20;;;;;;;11.57;74.06;63194.19;5009314;28;20238;-79
2023/01/17 08:34:22;;;;;;;1.08;1.08;;;;;;;11.63;72.57;63194.78;5008827;28;20223;-78
2023/01/17 08:36:49;;;;;;;1.25;1.00;;;;;;;11.66;73.06;63205.56;5009003;28;20227;-78
2023/01/17 08:39:16;;;;;;;0.82;0.82;;;;;;;11.70;73.82;63206.66;5009160;28;20228;-79
2023/01/17 08:41:46;;;;;;;1.13;1.05;;;;;;;11.71;73.57;63205.13;5008116;28;20287;-78
2023/01/17 08:44:14;;;;;;;2.10;1.35;;;;;;;11.71;74.33;63202.56;5008637;28;20283;-77
2023/01/17 08:46:43;;;;;;;2.40;1.50;;;;;;;11.84;74.09;63218.59;5006527;28;20303;-78
2023/01/17 08:49:11;;;;;;;1.85;1.10;;;;;;;11.81;74.27;63208.34;5007045;28;20253;-78
2023/01/17 08:51:39;;;;;;;0.82;0.82;;;;;;;11.89;73.90;63219.19;4988843;28;20220;-79
2023/01/17 08:54:08;;;;;;;1.42;1.33;;;;;;;12.02;72.91;63232.16;4988210;28;20207;-79
2023/01/17 08:56:35;;;;;;;1.60;1.50;;;;;;;12.06;73.38;63238.84;5004758;28;20233;-78
2023/01/17 08:59:03;;;;;;;1.00;1.00;;;;;;;12.01;68.63;63234.16;5008115;28;20200;-79
2023/01/17 09:01:30;;;;;;;1.67;0.90;;;;;;;12.03;69.41;63233.19;5007794;28;20270;-79
2023/01/17 09:03:58;;;;;;;1.23;1.13;;;;;;;11.98;69.12;63233.63;5008393;28;20236;-79
2023/01/17 09:06:25;;;;;;;1.13;1.13;;;;;;;12.09;70.73;63244.50;4993977;28;20220;-79
2023/01/17 09:08:53;;;;;;;1.10;1.00;;;;;;;12.22;66.52;63255.94;4994095;28;20204;-80
2023/01/17 09:11:20;;;;;;;1.10;1.00;;;;;;;12.20;67.50;63258.97;4993075;28;20275;-79
2023/01/17 09:13:47;;;;;;;2.63;1.40;;;;;;;12.31;68.17;63269.84;4993684;28;20200;-81
2023/01/17 09:16:23;;;;;;;2.50;1.17;;;;;;;12.32;64.70;63266.31;5007180;28;20279;-79
2023/01/17 09:18:54;;;;;;;2.45;1.38;;;;;;;12.22;67.50;63253.38;5011747;28;20245;-79
2023/01/17 09:21:24;;;;;;;3.30;1.20;;;;;;;12.26;64.71;63262.66;5011610;28;20278;-78
2023/01/17 09:23:51;;;;;;;2.05;1.30;;;;;;;12.08;64.44;63246.03;5011779;28;20243;-79
2023/01/17 09:26:21;;;;;;;0.85;0.85;;;;;;;11.85;66.32;63219.63;5011120;28;20227;-79
2023/01/17 09:28:48;;;;;;;1.92;1.40;;;;;;;11.92;66.75;63224.34;5012625;28;20235;-79
2023/01/17 09:31:16;;;;;;;1.48;1.38;;;;;;;12.04;66.41;63237.28;5013171;28;20227;-77
2023/01/17 09:33:43;;;;;;;1.50;1.40;;;;;;;12.16;66.86;63251.75;5012964;28;20210;-79
2023/01/17 09:36:11;;;;;;;2.45;1.33;;;;;;;12.32;65.85;63270.91;5012680;28;20233;-78
2023/01/17 09:38:42;;;;;;;1.67;1.55;;;;;;;12.53;65.12;63285.53;5009261;28;20455;-79
2023/01/17 09:41:26;;;;;;;1.05;1.00;;;;;;;12.51;62.58;63286.00;4992024;28;20263;-79
2023/01/17 09:43:58;;;;;;;1.20;1.10;;;;;;;12.54;63.17;63288.59;4997045;28;20231;-79
2023/01/17 09:46:29;;;;;;;1.20;1.20;;;;;;;12.54;62.66;63291.16;5010464;28;20234;-79
2023/01/17 09:49:06;;;;;;;0.95;0.95;;;;;;;12.62;61.84;63299.44;5009762;28;20473;-79
2023/01/17 09:51:33;;;;;;;1.38;1.17;;;;;;;12.57;63.13;63287.13;5007857;28;20294;-79
2023/01/17 09:54:02;;;;;;;3.15;0.95;;;;;;;12.49;61.71;63281.38;5012612;28;20645;-79
2023/01/17 09:56:34;;;;;;;1.23;0.95;;;;;;;12.50;62.56;63282.41;5012520;28;20286;-79
2023/01/17 09:59:17;;;;;;;2.08;1.05;;;;;;;12.49;62.48;63281.38;5001725;28;20219;-79
2023/01/17 10:01:53;;;;;;;0.65;0.65;;;;;;;12.40;63.04;63279.19;4992622;28;20223;-79
2023/01/17 10:04:41;;;;;;;1.27;0.90;;;;;;;12.48;61.66;63282.91;4993599;28;20239;-79
2023/01/17 10:07:19;;;;;;;1.42;0.93;;;;;;;12.75;62.20;63313.44;4996985;28;20219;-80
2023/01/17 10:10:04;;;;;;;4.13;1.05;;;;;;;12.80;62.08;63316.06;5013438;28;20191;-81
2023/01/17 10:12:40;;;;;;;1.38;1.20;;;;;;;12.86;60.48;63324.34;5013245;28;20412;-79
2023/01/17 10:15:39;;;;;;;2.33;1.73;;;;;;;13.00;60.40;63343.44;5006842;28;20199;-81
2023/01/17 10:18:25;;;;;;;2.25;2.05;;;;;;;13.13;59.83;63354.91;4992613;28;20207;-79
2023/01/17 10:20:58;;;;;;;2.45;1.80;;;;;;;13.06;58.31;63347.66;4994156;28;20191;-80
2023/01/17 10:23:51;;;;;;;2.00;1.73;;;;;;;12.69;60.86;63304.66;4993082;28;20232;-79
2023/01/17 10:26:23;;;;;;;4.20;2.00;;;;;;;12.64;61.84;63304.59;5000303;28;20262;-78
2023/01/17 10:28:55;;;;;;;1.45;1.45;;;;;;;12.84;59.60;63319.19;5012079;28;20198;-80
2023/01/17 10:31:24;;;;;;;1.38;1.00;;;;;;;13.01;59.03;63339.88;5010428;28;20238;-79
2023/01/17 10:33:52;;;;;;;1.58;1.50;;;;;;;13.19;59.25;63360.63;4992733;28;20214;-79
2023/01/17 10:36:25;;;;;;;2.03;1.65;;;;;;;13.28;58.29;63367.41;4993215;28;20239;-79
2023/01/17 10:38:55;;;;;;;2.92;2.10;;;;;;;13.46;58.04;63386.09;4993965;28;20200;-79
2023/01/17 10:41:29;;;;;;;1.40;1.40;;;;;;;13.56;57.28;63391.34;4999830;28;20268;-79
2023/01/17 10:44:05;;;;;;;2.15;1.50;;;;;;;13.49;57.19;63384.59;5012384;28;20218;-78
2023/01/17 10:46:39;;;;;;;6.25;2.72;;;;;;;12.98;58.70;63334.22;5011371;28;20241;-78
2023/01/17 10:49:16;;;;;;;1.35;1.25;;;;;;;12.49;59.87;63288.53;5011168;28;20243;-80
2023/01/17 10:52:07;;;;;;;1.38;1.27;;;;;;;12.54;60.60;63291.69;4992880;28;20401;-79
2023/01/17 10:55:07;;;;;;;1.77;1.67;;;;;;;12.74;59.95;63312.41;4996021;28;20215;-79
2023/01/17 10:57:39;;;;;;;2.83;1.20;;;;;;;12.62;59.43;63294.84;5011700;28;20224;-78
2023/01/17 11:00:42;;;;;;;6.97;2.05;;;;;;;12.36;62.08;63272.47;5009943;28;20398;-79
2023/01/17 11:03:11;;;;;;;4.72;1.50;;;;;;;12.35;62.48;63271.97;5014030;28;20251;-79
2023/01/17 11:05:39;;;;;;;1.63;1.52;;;;;;;12.50;61.52;63287.00;5011299;28;20199;-78
2023/01/17 11:08:08;;;;;;;1.30;1.17;;;;;;;12.70;61.15;63310.31;4996262;28;20242;-79
2023/01/17 11:10:41;;;;;;;2.25;1.52;;;;;;;12.74;58.49;63311.88;5011239;28;20207;-78
2023/01/17 11:13:25;;;;;;;1.60;1.50;;;;;;;12.82;60.01;63317.63;5010292;28;20253;-78
2023/01/17 11:15:56;;;;;;;1.20;1.20;;;;;;;12.91;60.74;63332.06;5000143;28;20267;-78
2023/01/17 11:18:27;;;;;;;1.67;1.58;;;;;;;12.93;60.02;63334.16;4991195;28;20196;-78
2023/01/17 11:21:10;;;;;;;2.25;2.10;;;;;;;13.06;59.42;63345.09;4999476;28;20266;-79
2023/01/17 11:23:41;;;;;;;1.60;1.50;;;;;;;12.87;59.01;63320.25;5010417;28;20611;-79
2023/01/17 11:26:11;;;;;;;1.85;1.75;;;;;;;12.88;61.30;63328.44;5010319;28;20234;-79
2023/01/17 11:28:41;;;;;;;3.65;3.28;;;;;;;12.96;60.83;63331.63;5007052;28;20509;-77
2023/01/17 11:31:25;;;;;;;1.67;1.30;;;;;;;12.93;59.98;63331.06;4991443;28;20243;-80
2023/01/17 11:34:13;;;;;;;1.77;1.67;;;;;;;12.98;59.03;63333.72;4991681;28;20188;-81
2023/01/17 11:36:41;;;;;;;1.98;1.88;;;;;;;12.85;59.08;63325.84;4992524;28;20251;-80
2023/01/17 11:39:26;;;;;;;1.70;1.60;;;;;;;12.93;59.93;63326.47;5006724;28;20211;-79
2023/01/17 11:41:53;;;;;;;2.50;1.63;;;;;;;13.07;59.22;63343.06;5011540;28;20219;-78
2023/01/17 11:44:24;;;;;;;3.40;1.92;;;;;;;13.17;58.55;63358.53;5009566;28;20270;-80
2023/01/17 11:47:18;;;;;;;3.80;2.40;;;;;;;13.16;58.63;63350.38;5011083;28;20243;-79
2023/01/17 11:49:46;;;;;;;1.52;1.42;;;;;;;13.02;58.51;63340.44;5003387;28;20207;-79
2023/01/17 11:52:22;;;;;;;3.70;1.27;;;;;;;13.18;57.81;63357.03;5012317;28;20250;-79
2023/01/17 11:54:50;;;;;;;2.13;1.50;;;;;;;13.17;58.53;63351.38;5010565;28;20203;-78
2023/01/17 11:57:23;;;;;;;1.00;1.00;;;;;;;13.01;58.40;63339.88;5004731;28;20242;-79
2023/01/17 11:59:57;;;;;;;1.60;1.50;;;;;;;13.01;58.41;63336.81;5010257;28;20207;-77
2023/01/17 12:02:37;;;;;;;2.40;1.77;;;;;;;12.94;58.21;63332.63;5010662;28;20241;-78
2023/01/17 12:05:18;;;;;;;1.80;1.70;;;;;;;12.94;58.73;63330.09;5010711;28;20226;-78
2023/01/17 12:07:54;;;;;;;2.15;1.95;;;;;;;12.97;59.20;63330.63;5010487;28;20243;-78
2023/01/17 12:10:26;;;;;;;1.83;1.15;;;;;;;12.88;58.16;63323.84;5009612;28;20223;-79
2023/01/17 12:16:00;;;;;;;1.70;1.50;;;;;;;12.96;58.86;63334.69;5005187;28;20235;-79
2023/01/17 12:18:48;;;;;;;1.23;1.23;;;;;;;12.96;57.68;63331.63;5009772;28;20196;-78
2023/01/17 12:21:17;;;;;;;1.35;1.35;;;;;;;12.97;58.57;63337.78;5000015;28;20227;-80
2023/01/17 12:23:59;;;;;;;1.05;1.05;;;;;;;12.85;58.24;63325.84;5008663;28;20207;-79
2023/01/17 12:26:34;;;;;;;1.00;1.00;;;;;;;12.75;58.35;63312.94;5009520;28;20235;-79
2023/01/17 12:29:35;;;;;;;1.70;0.77;;;;;;;12.76;57.62;63311.41;5008686;28;20396;-78
2023/01/17 12:32:21;;;;;;;1.98;1.08;;;;;;;12.84;58.85;63319.19;4995982;28;20228;-78
2023/01/17 12:34:54;;;;;;;1.52;1.42;;;;;;;12.75;58.66;63310.88;4990236;28;20199;-78
2023/01/17 12:37:29;;;;;;;1.70;1.60;;;;;;;12.94;57.81;63327.00;4992031;28;20231;-79
2023/01/17 12:40:01;;;;;;;2.60;1.60;;;;;;;13.09;57.68;63347.69;4999482;28;20199;-79
2023/01/17 12:42:35;;;;;;;1.25;1.02;;;;;;;13.17;56.40;63351.38;4995719;28;20228;-79
2023/01/17 12:45:07;;;;;;;0.75;0.75;;;;;;;13.31;55.66;63368.47;5007044;28;20230;-78
2023/01/17 12:47:42;;;;;;;1.23;1.00;;;;;;;13.25;55.51;63361.72;5010834;28;20227;-79
2023/01/17 12:50:21;;;;;;;1.40;0.82;;;;;;;13.32;55.86;63372.06;5011420;28;20213;-79
2023/01/17 12:52:55;;;;;;;1.25;1.15;;;;;;;13.46;56.32;63386.09;5010389;28;20585;-79
2023/01/17 12:55:35;;;;;;;1.27;1.20;;;;;;;13.59;54.86;63404.69;5010542;28;20543;-77
2023/01/17 12:58:07;;;;;;;1.77;1.02;;;;;;;13.37;54.61;63377.25;4999581;28;20253;-78
2023/01/17 13:00:38;;;;;;;1.58;1.00;;;;;;;13.51;55.48;63389.22;5009227;28;20210;-78
2023/01/17 13:03:16;;;;;;;1.10;1.10;;;;;;;13.55;55.05;63393.38;5010335;28;20215;-79
2023/01/17 13:05:47;;;;;;;1.45;0.98;;;;;;;13.50;54.75;63387.66;5009583;28;20490;-79
2023/01/17 13:08:24;;;;;;;1.63;1.20;;;;;;;13.52;54.18;63390.25;5007381;28;20254;-79
2023/01/17 13:10:56;;;;;;;1.50;1.42;;;;;;;13.46;54.57;63386.09;5008807;28;20417;-79
2023/01/17 13:13:25;;;;;;;1.63;1.23;;;;;;;13.22;55.61;63358.63;5006634;28;20227;-79
2023/01/17 13:15:56;;;;;;;3.25;1.20;;;;;;;13.19;55.16;63358.06;5009295;28;20313;-81